Time;durP1;ratioP1;P1;durP2;ratioP2;P2;SDS_P1;SDS_P2;PMS_P1;PMS_P2;Temp;Humidity;BMP_temperature;BMP_pressure;BME280_temperature;BME280_humidity;BME280_pressure;Samples;Min_cycle;Max_cycle;Signal;HPM_P1;HPM_P2
2021/09/08 00:01:01;;;;;;;12.38;5.93;;;;;;;;;;5117879;27;20043;-57
2021/09/08 00:03:27;;;;;;;12.15;6.22;;;;;;;;;;5112328;27;20031;-57
2021/09/08 00:06:02;;;;;;;13.27;6.15;;;;;;;;;;5119354;27;20066;-54
2021/09/08 00:08:29;;;;;;;12.25;5.82;;;;;;;;;;5118301;27;20036;-55
2021/09/08 00:10:55;;;;;;;15.88;6.55;;;;;;;;;;5119535;27;20043;-57
2021/09/08 00:13:24;;;;;;;11.48;5.53;;;;;;;;;;5109779;27;20048;-56
2021/09/08 00:15:51;;;;;;;12.13;6.35;;;;;;;;;;5106713;27;20050;-55
2021/09/08 00:18:17;;;;;;;14.13;5.75;;;;;;;;;;5112665;27;20055;-55
2021/09/08 00:20:43;;;;;;;14.80;6.47;;;;;;;;;;5118701;27;20063;-55
2021/09/08 00:23:10;;;;;;;13.98;5.97;;;;;;;;;;5108103;27;20044;-56
2021/09/08 00:25:36;;;;;;;16.55;6.07;;;;;;;;;;5112456;27;20059;-57
2021/09/08 00:28:03;;;;;;;11.18;5.30;;;;;;;;;;5112741;27;20051;-56
2021/09/08 00:30:31;;;;;;;15.85;5.57;;;;;;;;;;5117168;27;20035;-56
2021/09/08 00:32:57;;;;;;;11.23;5.53;;;;;;;;;;5121259;27;20031;-55
2021/09/08 00:35:24;;;;;;;15.93;6.25;;;;;;;;;;5114011;27;20054;-54
2021/09/08 00:37:50;;;;;;;13.32;5.78;;;;;;;;;;5107424;27;20230;-57
2021/09/08 00:40:17;;;;;;;12.07;5.50;;;;;;;;;;5112989;27;20116;-54
2021/09/08 00:42:43;;;;;;;12.57;5.53;;;;;;;;;;5105530;27;20051;-56
2021/09/08 00:45:10;;;;;;;12.18;5.82;;;;;;;;;;5111343;27;20040;-58
2021/09/08 00:47:38;;;;;;;12.65;5.97;;;;;;;;;;5111002;27;20058;-56
2021/09/08 00:50:05;;;;;;;13.80;6.32;;;;;;;;;;5112359;27;20148;-55
2021/09/08 00:52:31;;;;;;;11.13;5.40;;;;;;;;;;5114926;27;20072;-56
2021/09/08 00:55:00;;;;;;;13.25;5.90;;;;;;;;;;5111589;27;20050;-56
2021/09/08 00:57:28;;;;;;;11.68;5.57;;;;;;;;;;5105522;27;20054;-54
2021/09/08 00:59:54;;;;;;;12.82;5.80;;;;;;;;;;5108700;27;20039;-56
2021/09/08 01:02:21;;;;;;;15.38;5.82;;;;;;;;;;5107279;27;20059;-56
2021/09/08 01:04:55;;;;;;;13.07;6.00;;;;;;;;;;5109581;27;20132;-56
2021/09/08 01:07:22;;;;;;;12.43;6.07;;;;;;;;;;5107393;28;20043;-55
2021/09/08 01:09:49;;;;;;;13.43;5.97;;;;;;;;;;5118637;27;20024;-56
2021/09/08 01:12:15;;;;;;;12.77;5.68;;;;;;;;;;5111813;27;20035;-56
2021/09/08 01:14:42;;;;;;;14.75;6.45;;;;;;;;;;5108535;27;20063;-60
2021/09/08 01:17:09;;;;;;;13.05;5.88;;;;;;;;;;5112057;27;20051;-54
2021/09/08 01:19:36;;;;;;;13.27;6.30;;;;;;;;;;5116843;27;20031;-56
2021/09/08 01:22:04;;;;;;;12.00;5.80;;;;;;;;;;5110475;27;20050;-56
2021/09/08 01:24:34;;;;;;;11.43;5.40;;;;;;;;;;5108781;27;20047;-57
2021/09/08 01:27:03;;;;;;;16.33;6.18;;;;;;;;;;5110105;28;20039;-57
2021/09/08 01:29:32;;;;;;;12.05;5.50;;;;;;;;;;5107519;27;20138;-56
2021/09/08 01:32:00;;;;;;;15.43;6.25;;;;;;;;;;5111336;28;20051;-55
2021/09/08 01:34:27;;;;;;;15.75;6.22;;;;;;;;;;5116734;27;20059;-56
2021/09/08 01:36:54;;;;;;;16.13;6.15;;;;;;;;;;5122487;27;20036;-57
2021/09/08 01:39:22;;;;;;;14.07;6.53;;;;;;;;;;5108063;27;20044;-57
2021/09/08 01:41:50;;;;;;;16.17;6.28;;;;;;;;;;5127085;27;20116;-54
2021/09/08 01:44:20;;;;;;;12.93;5.95;;;;;;;;;;5109940;28;20047;-54
2021/09/08 01:46:49;;;;;;;15.98;6.53;;;;;;;;;;5108407;27;20047;-55
2021/09/08 01:49:15;;;;;;;;;;;;;;;;;;5116601;27;20196;-56
2021/09/08 01:51:42;;;;;;;16.33;6.65;;;;;;;;;;5118802;27;19920;-54
2021/09/08 01:54:08;;;;;;;14.85;6.68;;;;;;;;;;5106805;27;20028;-56
2021/09/08 01:56:37;;;;;;;15.18;5.97;;;;;;;;;;5105887;27;20039;-55
2021/09/08 01:59:05;;;;;;;13.77;6.38;;;;;;;;;;5110291;27;20073;-56
2021/09/08 02:01:31;;;;;;;14.55;6.63;;;;;;;;;;5102150;27;20128;-55
2021/09/08 02:03:58;;;;;;;13.32;6.32;;;;;;;;;;5103293;27;20044;-56
2021/09/08 02:06:25;;;;;;;14.68;7.18;;;;;;;;;;5098611;28;20052;-56
2021/09/08 02:08:52;;;;;;;16.17;6.75;;;;;;;;;;5100122;28;20047;-58
2021/09/08 02:11:19;;;;;;;13.32;6.57;;;;;;;;;;5096472;28;20050;-53
2021/09/08 02:13:45;;;;;;;17.70;7.03;;;;;;;;;;5101576;28;20036;-54
2021/09/08 02:16:15;;;;;;;18.38;6.57;;;;;;;;;;5098369;28;20048;-55
2021/09/08 02:18:41;;;;;;;15.30;6.75;;;;;;;;;;5104004;28;20066;-55
2021/09/08 02:21:08;;;;;;;12.50;6.28;;;;;;;;;;5097166;28;20051;-57
2021/09/08 02:23:35;;;;;;;19.33;7.68;;;;;;;;;;5101278;28;20043;-56
2021/09/08 02:26:02;;;;;;;15.20;7.22;;;;;;;;;;5097994;28;20048;-55
2021/09/08 02:28:28;;;;;;;15.35;6.32;;;;;;;;;;5101148;28;20032;-56
2021/09/08 02:30:56;;;;;;;18.40;7.05;;;;;;;;;;5101524;28;20048;-54
2021/09/08 02:33:24;;;;;;;15.75;6.97;;;;;;;;;;5121210;28;20043;-56
2021/09/08 02:35:51;;;;;;;15.50;7.32;;;;;;;;;;5118159;28;20044;-55
2021/09/08 02:38:17;;;;;;;21.30;7.80;;;;;;;;;;5101374;28;20128;-55
2021/09/08 02:40:44;;;;;;;14.93;7.28;;;;;;;;;;5101654;28;20036;-54
2021/09/08 02:43:10;;;;;;;15.55;7.28;;;;;;;;;;5117556;28;20047;-52
2021/09/08 02:45:37;;;;;;;15.65;7.15;;;;;;;;;;5120808;28;20035;-56
2021/09/08 02:48:04;;;;;;;17.73;7.25;;;;;;;;;;5102237;28;20355;-55
2021/09/08 02:50:32;;;;;;;20.25;7.60;;;;;;;;;;5102460;28;20042;-56
2021/09/08 02:52:58;;;;;;;16.95;7.53;;;;;;;;;;5100408;28;20036;-51
2021/09/08 02:55:25;;;;;;;20.55;8.70;;;;;;;;;;5114768;28;20032;-56
2021/09/08 02:57:51;;;;;;;17.90;7.10;;;;;;;;;;5116170;28;20046;-56
2021/09/08 03:00:18;;;;;;;15.00;7.13;;;;;;;;;;5124290;27;20039;-56
2021/09/08 03:02:45;;;;;;;20.73;7.88;;;;;;;;;;5116471;28;20054;-55
2021/09/08 03:05:11;;;;;;;16.30;7.70;;;;;;;;;;5120958;27;20047;-53
2021/09/08 03:07:40;;;;;;;18.25;7.97;;;;;;;;;;5113523;28;20038;-56
2021/09/08 03:10:07;;;;;;;17.77;7.43;;;;;;;;;;5101561;28;20036;-56
2021/09/08 03:12:33;;;;;;;19.23;7.65;;;;;;;;;;5114420;28;20054;-55
2021/09/08 03:14:59;;;;;;;17.45;7.72;;;;;;;;;;5099988;28;20113;-54
2021/09/08 03:17:27;;;;;;;19.30;7.65;;;;;;;;;;5103849;28;20039;-53
2021/09/08 03:19:53;;;;;;;17.53;7.97;;;;;;;;;;5097253;28;20059;-55
2021/09/08 03:22:20;;;;;;;18.77;8.18;;;;;;;;;;5099176;28;20051;-53
2021/09/08 03:24:48;;;;;;;17.90;7.95;;;;;;;;;;5096557;27;20035;-55
2021/09/08 03:27:15;;;;;;;17.40;7.75;;;;;;;;;;5103596;27;20036;-56
2021/09/08 03:29:41;;;;;;;21.00;8.15;;;;;;;;;;5099429;27;20161;-55
2021/09/08 03:32:08;;;;;;;20.45;8.70;;;;;;;;;;5103431;27;20051;-55
2021/09/08 03:34:34;;;;;;;16.10;7.95;;;;;;;;;;5099438;27;20035;-56
2021/09/08 03:37:01;;;;;;;19.80;7.63;;;;;;;;;;5104909;27;20060;-55
2021/09/08 03:39:27;;;;;;;17.70;7.57;;;;;;;;;;5099457;27;20054;-55
2021/09/08 03:41:55;;;;;;;18.17;7.32;;;;;;;;;;5102838;27;20043;-54
2021/09/08 03:44:22;;;;;;;17.30;8.47;;;;;;;;;;5108031;27;20036;-55
2021/09/08 03:46:49;;;;;;;16.50;7.82;;;;;;;;;;5122531;27;20040;-55
2021/09/08 03:49:16;;;;;;;20.17;8.35;;;;;;;;;;5114990;27;20044;-54
2021/09/08 03:51:42;;;;;;;17.55;8.32;;;;;;;;;;5103396;27;20096;-55
2021/09/08 03:54:09;;;;;;;18.42;7.82;;;;;;;;;;5101262;28;20036;-56
2021/09/08 03:56:35;;;;;;;20.48;8.35;;;;;;;;;;5104749;28;20096;-50
2021/09/08 03:59:03;;;;;;;18.27;8.27;;;;;;;;;;5101198;28;20043;-54
2021/09/08 04:01:30;;;;;;;16.55;8.23;;;;;;;;;;5101286;28;20047;-55
2021/09/08 04:03:57;;;;;;;19.70;7.95;;;;;;;;;;5103856;28;20042;-55
2021/09/08 04:06:25;;;;;;;22.60;8.65;;;;;;;;;;5117678;27;20031;-56
2021/09/08 04:08:51;;;;;;;20.40;8.70;;;;;;;;;;5125838;27;20039;-56
2021/09/08 04:11:18;;;;;;;20.52;7.97;;;;;;;;;;5109975;27;20055;-54
2021/09/08 04:13:44;;;;;;;22.08;8.88;;;;;;;;;;5104025;28;20038;-54
2021/09/08 04:16:13;;;;;;;20.08;8.57;;;;;;;;;;5113236;27;20058;-54
2021/09/08 04:18:40;;;;;;;18.67;8.20;;;;;;;;;;5124024;27;20083;-55
2021/09/08 04:21:06;;;;;;;26.33;8.93;;;;;;;;;;5110494;27;20035;-54
2021/09/08 04:23:32;;;;;;;19.10;8.55;;;;;;;;;;5103903;28;20044;-55
2021/09/08 04:25:59;;;;;;;19.80;8.25;;;;;;;;;;5108229;27;20036;-55
2021/09/08 04:28:25;;;;;;;23.83;8.02;;;;;;;;;;5125297;27;20063;-55
2021/09/08 04:30:52;;;;;;;27.17;9.20;;;;;;;;;;5117143;27;20038;-54
2021/09/08 04:33:20;;;;;;;22.13;8.52;;;;;;;;;;5104413;28;20047;-54
2021/09/08 04:35:47;;;;;;;18.38;8.45;;;;;;;;;;5101803;28;20047;-54
2021/09/08 04:38:13;;;;;;;18.15;8.38;;;;;;;;;;5123373;27;20116;-56
2021/09/08 04:40:39;;;;;;;19.63;8.02;;;;;;;;;;5121797;27;20049;-54
2021/09/08 04:43:06;;;;;;;17.80;8.77;;;;;;;;;;5103534;28;20031;-54
2021/09/08 04:45:32;;;;;;;17.08;8.23;;;;;;;;;;5102954;27;20044;-56
2021/09/08 04:47:59;;;;;;;19.63;8.88;;;;;;;;;;5099500;28;20036;-52
2021/09/08 04:50:27;;;;;;;18.75;8.50;;;;;;;;;;5102935;28;20032;-50
2021/09/08 04:52:53;;;;;;;22.07;8.33;;;;;;;;;;5114624;27;20047;-51
2021/09/08 04:55:20;;;;;;;18.27;8.25;;;;;;;;;;5113670;27;20047;-55
2021/09/08 04:57:46;;;;;;;23.40;8.40;;;;;;;;;;5097863;28;20051;-54
2021/09/08 05:00:13;;;;;;;17.98;8.15;;;;;;;;;;5102880;28;20036;-54
2021/09/08 05:02:39;;;;;;;18.02;8.48;;;;;;;;;;5108547;28;20053;-56
2021/09/08 05:05:06;;;;;;;20.38;8.35;;;;;;;;;;5123330;27;20058;-55
2021/09/08 05:07:34;;;;;;;20.40;8.32;;;;;;;;;;5111841;27;20044;-55
2021/09/08 05:10:01;;;;;;;24.20;11.05;;;;;;;;;;5101735;28;20109;-55
2021/09/08 05:12:27;;;;;;;27.42;13.80;;;;;;;;;;5097870;27;20031;-56
2021/09/08 05:14:53;;;;;;;21.48;10.82;;;;;;;;;;5121909;27;20062;-56
2021/09/08 05:17:20;;;;;;;20.42;8.80;;;;;;;;;;5116842;27;20208;-56
2021/09/08 05:19:49;;;;;;;22.27;9.10;;;;;;;;;;5111367;27;20040;-52
2021/09/08 05:22:16;;;;;;;24.90;9.32;;;;;;;;;;5104544;27;20058;-54
2021/09/08 05:24:44;;;;;;;19.20;8.30;;;;;;;;;;5106872;27;20039;-54
2021/09/08 05:27:11;;;;;;;19.20;8.70;;;;;;;;;;5094382;27;20059;-55
2021/09/08 05:29:37;;;;;;;20.02;8.15;;;;;;;;;;5106691;27;20101;-55
2021/09/08 05:32:04;;;;;;;17.88;7.40;;;;;;;;;;5106504;28;20047;-54
2021/09/08 05:34:30;;;;;;;18.23;8.07;;;;;;;;;;5107648;27;20050;-54
2021/09/08 05:36:58;;;;;;;19.67;8.48;;;;;;;;;;5115076;27;20055;-54
2021/09/08 05:39:24;;;;;;;17.73;8.27;;;;;;;;;;5106720;27;20043;-54
2021/09/08 05:41:52;;;;;;;29.70;9.85;;;;;;;;;;5109698;27;20054;-55
2021/09/08 05:44:18;;;;;;;18.90;8.40;;;;;;;;;;5103789;27;20048;-53
2021/09/08 05:46:45;;;;;;;22.48;9.43;;;;;;;;;;5114137;27;20052;-55
2021/09/08 05:49:12;;;;;;;22.05;8.77;;;;;;;;;;5107447;27;20051;-55
2021/09/08 05:51:39;;;;;;;16.40;8.50;;;;;;;;;;5123056;27;20039;-53
2021/09/08 05:54:09;;;;;;;20.02;8.48;;;;;;;;;;5104513;27;20031;-56
2021/09/08 05:56:36;;;;;;;18.17;8.35;;;;;;;;;;5111492;27;20050;-57
2021/09/08 05:59:05;;;;;;;18.33;8.25;;;;;;;;;;5107791;27;20039;-52
2021/09/08 06:01:31;;;;;;;19.08;8.65;;;;;;;;;;5119079;27;20043;-56
2021/09/08 06:03:58;;;;;;;22.40;8.27;;;;;;;;;;5113721;27;20035;-56
2021/09/08 06:06:25;;;;;;;17.75;8.07;;;;;;;;;;5121009;27;20097;-56
2021/09/08 06:08:52;;;;;;;19.33;8.20;;;;;;;;;;5125613;27;20161;-55
2021/09/08 06:11:18;;;;;;;16.80;8.82;;;;;;;;;;5098300;27;20043;-56
2021/09/08 06:13:45;;;;;;;18.10;8.80;;;;;;;;;;5102348;28;20116;-56
2021/09/08 06:16:13;;;;;;;21.23;7.85;;;;;;;;;;5097869;28;20052;-55
2021/09/08 06:18:39;;;;;;;18.80;8.35;;;;;;;;;;5100284;28;20103;-55
2021/09/08 06:21:05;;;;;;;21.90;8.93;;;;;;;;;;5110897;28;20039;-51
2021/09/08 06:23:32;;;;;;;20.95;8.18;;;;;;;;;;5123105;27;20059;-56
2021/09/08 06:26:02;;;;;;;21.80;8.63;;;;;;;;;;5117426;27;20077;-56
2021/09/08 06:28:29;;;;;;;17.15;8.27;;;;;;;;;;5120312;27;20190;-56
2021/09/08 06:30:56;;;;;;;20.20;8.40;;;;;;;;;;5107999;28;20035;-53
2021/09/08 06:33:24;;;;;;;23.15;7.50;;;;;;;;;;5099947;28;20039;-54
2021/09/08 06:35:51;;;;;;;19.40;8.50;;;;;;;;;;5102748;27;20039;-55
2021/09/08 06:38:17;;;;;;;22.23;8.68;;;;;;;;;;5121326;27;20099;-56
2021/09/08 06:40:43;;;;;;;17.58;8.63;;;;;;;;;;5114168;28;20135;-55
2021/09/08 06:43:10;;;;;;;18.42;8.52;;;;;;;;;;5099522;28;20040;-56
2021/09/08 06:45:36;;;;;;;20.92;8.65;;;;;;;;;;5097531;28;20067;-55
2021/09/08 06:48:03;;;;;;;22.23;8.38;;;;;;;;;;5100987;28;20132;-56
2021/09/08 06:50:31;;;;;;;21.92;9.55;;;;;;;;;;5101347;28;20052;-55
2021/09/08 06:52:57;;;;;;;19.33;8.00;;;;;;;;;;5114441;27;20039;-56
2021/09/08 06:55:25;;;;;;;20.45;8.07;;;;;;;;;;5111401;28;20048;-55
2021/09/08 06:57:51;;;;;;;21.45;8.48;;;;;;;;;;5097586;28;20047;-56
2021/09/08 07:00:18;;;;;;;22.38;8.68;;;;;;;;;;5104404;28;20054;-54
2021/09/08 07:02:44;;;;;;;21.23;8.18;;;;;;;;;;5100315;27;20035;-56
2021/09/08 07:05:11;;;;;;;20.38;8.23;;;;;;;;;;5105634;28;20043;-55
2021/09/08 07:07:39;;;;;;;18.55;8.63;;;;;;;;;;5102014;28;20044;-55
2021/09/08 07:10:05;;;;;;;17.10;8.50;;;;;;;;;;5105534;28;20050;-55
2021/09/08 07:12:32;;;;;;;21.42;9.70;;;;;;;;;;5120698;27;20039;-55
2021/09/08 07:14:58;;;;;;;20.48;8.60;;;;;;;;;;5123280;27;20115;-54
2021/09/08 07:17:25;;;;;;;18.15;8.95;;;;;;;;;;5114920;27;20044;-54
2021/09/08 07:19:51;;;;;;;22.17;8.60;;;;;;;;;;5087544;28;20080;-55
2021/09/08 07:22:18;;;;;;;25.83;10.23;;;;;;;;;;5104008;28;20047;-55
2021/09/08 07:24:46;;;;;;;25.35;9.23;;;;;;;;;;5124169;27;20051;-50
2021/09/08 07:27:12;;;;;;;23.30;9.23;;;;;;;;;;5120849;27;20035;-52
2021/09/08 07:29:39;;;;;;;20.00;9.48;;;;;;;;;;5111093;27;20272;-56
2021/09/08 07:32:08;;;;;;;19.33;8.95;;;;;;;;;;5109514;27;20055;-54
2021/09/08 07:34:34;;;;;;;19.95;8.55;;;;;;;;;;5102802;27;20043;-54
2021/09/08 07:37:02;;;;;;;24.95;9.93;;;;;;;;;;5105861;27;20077;-55
2021/09/08 07:39:29;;;;;;;21.95;8.68;;;;;;;;;;5117223;27;20113;-55
2021/09/08 07:41:57;;;;;;;20.48;8.80;;;;;;;;;;5125868;27;20036;-56
2021/09/08 07:44:23;;;;;;;20.93;8.53;;;;;;;;;;5121042;27;20043;-53
2021/09/08 07:46:50;;;;;;;19.02;8.63;;;;;;;;;;5126175;27;20263;-55
2021/09/08 07:49:16;;;;;;;21.40;8.32;;;;;;;;;;5108717;27;20048;-56
2021/09/08 07:51:44;;;;;;;17.92;8.25;;;;;;;;;;5103292;28;20039;-52
2021/09/08 07:54:11;;;;;;;18.75;8.32;;;;;;;;;;5107843;28;20047;-53
2021/09/08 07:56:37;;;;;;;19.48;8.57;;;;;;;;;;5103230;28;20063;-54
2021/09/08 07:59:05;;;;;;;20.83;8.55;;;;;;;;;;5106190;27;20054;-55
2021/09/08 08:01:33;;;;;;;21.05;8.77;;;;;;;;;;5114378;27;20079;-52
2021/09/08 08:04:00;;;;;;;20.27;8.30;;;;;;;;;;5115690;27;20044;-56
2021/09/08 08:06:27;;;;;;;18.05;8.07;;;;;;;;;;5103311;28;20046;-54
2021/09/08 08:08:53;;;;;;;23.83;9.18;;;;;;;;;;5100576;28;20043;-56
2021/09/08 08:11:19;;;;;;;19.67;8.68;;;;;;;;;;5112811;28;20041;-55
2021/09/08 08:13:47;;;;;;;17.88;7.85;;;;;;;;;;5122772;27;20043;-54
2021/09/08 08:16:17;;;;;;;25.98;8.07;;;;;;;;;;5118621;27;20040;-56
2021/09/08 08:18:44;;;;;;;17.85;8.40;;;;;;;;;;5123884;27;20059;-57
2021/09/08 08:21:10;;;;;;;16.45;7.43;;;;;;;;;;5119930;27;20100;-55
2021/09/08 08:23:37;;;;;;;18.52;7.43;;;;;;;;;;5122177;27;20046;-54
2021/09/08 08:26:08;;;;;;;21.02;7.03;;;;;;;;;;5119040;27;20155;-55
2021/09/08 08:28:35;;;;;;;17.48;7.32;;;;;;;;;;5122915;27;20058;-55
2021/09/08 08:31:01;;;;;;;16.58;6.97;;;;;;;;;;5107049;27;20032;-56
2021/09/08 08:33:29;;;;;;;18.67;7.25;;;;;;;;;;5102340;28;20036;-53
2021/09/08 08:35:56;;;;;;;16.35;7.65;;;;;;;;;;5098355;28;20044;-54
2021/09/08 08:38:23;;;;;;;20.40;7.97;;;;;;;;;;5102385;28;20055;-57
2021/09/08 08:40:49;;;;;;;15.63;7.13;;;;;;;;;;5107343;28;20047;-57
2021/09/08 08:43:16;;;;;;;17.88;7.45;;;;;;;;;;5124597;27;20051;-55
2021/09/08 08:45:42;;;;;;;19.42;7.22;;;;;;;;;;5119807;27;20035;-55
2021/09/08 08:48:09;;;;;;;20.63;7.72;;;;;;;;;;5122847;27;20051;-55
2021/09/08 08:50:37;;;;;;;16.00;7.90;;;;;;;;;;5118496;27;20058;-55
2021/09/08 08:53:03;;;;;;;18.63;8.20;;;;;;;;;;5122646;27;20043;-56
2021/09/08 08:55:30;;;;;;;20.10;7.75;;;;;;;;;;5112981;27;20276;-57
2021/09/08 08:57:58;;;;;;;23.30;9.10;;;;;;;;;;5101583;27;20036;-57
2021/09/08 09:00:24;;;;;;;18.02;7.80;;;;;;;;;;5100977;28;20056;-55
2021/09/08 09:02:54;;;;;;;18.00;7.93;;;;;;;;;;5100676;27;20040;-57
2021/09/08 09:05:36;;;;;;;18.77;8.15;;;;;;;;;;5100746;28;20101;-58
2021/09/08 09:08:08;;;;;;;25.10;8.20;;;;;;;;;;5114734;27;20120;-57
2021/09/08 09:10:35;;;;;;;17.42;8.48;;;;;;;;;;5121876;27;20036;-57
2021/09/08 09:13:01;;;;;;;17.05;7.78;;;;;;;;;;5116599;27;20069;-57
2021/09/08 09:15:37;;;;;;;20.52;8.57;;;;;;;;;;5115238;27;20146;-58
2021/09/08 09:18:04;;;;;;;24.02;7.93;;;;;;;;;;5107174;27;20035;-57
2021/09/08 09:20:32;;;;;;;19.40;8.13;;;;;;;;;;5104539;28;20028;-58
2021/09/08 09:23:00;;;;;;;17.95;7.68;;;;;;;;;;5109939;27;20040;-58
2021/09/08 09:25:29;;;;;;;21.42;8.35;;;;;;;;;;5123271;27;20036;-57
2021/09/08 09:27:57;;;;;;;16.25;7.95;;;;;;;;;;5098957;27;20056;-57
2021/09/08 09:30:26;;;;;;;22.53;8.20;;;;;;;;;;5102773;28;20043;-57
2021/09/08 09:32:53;;;;;;;19.90;8.15;;;;;;;;;;5099813;28;20058;-58
2021/09/08 09:35:22;;;;;;;17.50;8.18;;;;;;;;;;5101781;28;20047;-56
2021/09/08 09:37:49;;;;;;;18.15;8.02;;;;;;;;;;5100712;27;20031;-58
2021/09/08 09:40:16;;;;;;;16.08;6.95;;;;;;;;;;5107152;27;20035;-58
2021/09/08 09:42:45;;;;;;;17.52;7.35;;;;;;;;;;5119696;27;20054;-58
2021/09/08 09:45:11;;;;;;;;;;;;;;;;;;5119868;27;20042;-57
2021/09/08 09:47:39;;;;;;;14.10;6.90;;;;;;;;;;5117712;28;19923;-58
2021/09/08 09:50:07;;;;;;;18.90;8.23;;;;;;;;;;5101804;28;20028;-58
2021/09/08 09:52:34;;;;;;;13.35;6.80;;;;;;;;;;5102148;28;20050;-57
2021/09/08 09:55:00;;;;;;;15.35;7.40;;;;;;;;;;5098349;27;20044;-58
2021/09/08 09:57:27;;;;;;;22.13;7.72;;;;;;;;;;5100995;28;20043;-57
2021/09/08 09:59:56;;;;;;;15.85;6.57;;;;;;;;;;5099144;28;20043;-57
2021/09/08 10:02:22;;;;;;;19.48;7.10;;;;;;;;;;5103376;28;20056;-57
2021/09/08 10:04:49;;;;;;;15.10;6.97;;;;;;;;;;5128814;27;20040;-58
2021/09/08 10:07:19;;;;;;;18.15;6.70;;;;;;;;;;5122106;27;20043;-58
2021/09/08 10:09:48;;;;;;;15.95;7.28;;;;;;;;;;5106358;27;20024;-57
2021/09/08 10:12:15;;;;;;;16.15;5.85;;;;;;;;;;5101119;28;20044;-58
2021/09/08 10:14:42;;;;;;;14.13;6.20;;;;;;;;;;5098211;28;20039;-59
2021/09/08 10:17:11;;;;;;;18.83;5.88;;;;;;;;;;5102665;28;20128;-59
2021/09/08 10:19:39;;;;;;;12.75;5.63;;;;;;;;;;5098470;28;20036;-58
2021/09/08 10:22:07;;;;;;;13.00;6.45;;;;;;;;;;5099965;28;20056;-58
2021/09/08 10:24:33;;;;;;;13.13;6.50;;;;;;;;;;5098253;28;20038;-58
2021/09/08 10:27:19;;;;;;;11.95;6.25;;;;;;;;;;5101331;28;20052;-58
2021/09/08 10:29:48;;;;;;;11.75;6.30;;;;;;;;;;5105690;28;20035;-58
2021/09/08 10:32:18;;;;;;;13.00;6.10;;;;;;;;;;5122314;28;20054;-56
2021/09/08 10:34:44;;;;;;;12.90;6.47;;;;;;;;;;5120132;28;20032;-58
2021/09/08 10:37:11;;;;;;;14.07;6.03;;;;;;;;;;5106127;28;20035;-58
2021/09/08 10:39:38;;;;;;;14.57;6.43;;;;;;;;;;5104512;28;20036;-58
2021/09/08 10:42:04;;;;;;;13.82;6.30;;;;;;;;;;5126851;27;20039;-58
2021/09/08 10:44:40;;;;;;;16.88;6.75;;;;;;;;;;5125637;27;20043;-58
2021/09/08 10:47:08;;;;;;;16.50;6.80;;;;;;;;;;5102351;27;20040;-58
2021/09/08 10:49:48;;;;;;;14.52;6.10;;;;;;;;;;5105161;27;20040;-58
2021/09/08 10:52:16;;;;;;;13.02;5.85;;;;;;;;;;5102946;27;20055;-59
2021/09/08 10:55:00;;;;;;;15.25;5.93;;;;;;;;;;5110939;27;20047;-58
2021/09/08 10:57:41;;;;;;;13.05;6.50;;;;;;;;;;5092711;28;20035;-58
2021/09/08 11:00:09;;;;;;;10.82;5.60;;;;;;;;;;5105977;28;20036;-58
2021/09/08 11:02:38;;;;;;;15.50;6.17;;;;;;;;;;5119897;27;20054;-58
2021/09/08 11:05:07;;;;;;;11.27;5.70;;;;;;;;;;5123256;27;20054;-58
2021/09/08 11:07:35;;;;;;;11.95;6.05;;;;;;;;;;5120343;27;20039;-58
2021/09/08 11:10:01;;;;;;;19.02;6.20;;;;;;;;;;5125028;27;20031;-57
2021/09/08 11:12:44;;;;;;;13.70;6.10;;;;;;;;;;5106418;27;20044;-58
2021/09/08 11:15:10;;;;;;;12.23;5.68;;;;;;;;;;5103151;28;20051;-58
2021/09/08 11:17:37;;;;;;;17.35;6.28;;;;;;;;;;5100484;28;20035;-58
2021/09/08 11:20:06;;;;;;;17.40;5.85;;;;;;;;;;5104773;27;20046;-58
2021/09/08 11:22:34;;;;;;;11.88;5.50;;;;;;;;;;5109882;28;20123;-58
2021/09/08 11:25:04;;;;;;;10.73;5.05;;;;;;;;;;5116566;27;20054;-58
2021/09/08 11:27:31;;;;;;;14.63;5.55;;;;;;;;;;5109942;27;20043;-58
2021/09/08 11:30:04;;;;;;;11.73;5.63;;;;;;;;;;5103264;28;20051;-58
2021/09/08 11:32:45;;;;;;;14.05;6.03;;;;;;;;;;5099694;28;20051;-58
2021/09/08 11:35:14;;;;;;;13.38;5.63;;;;;;;;;;5105382;27;20087;-59
2021/09/08 11:37:44;;;;;;;10.00;5.47;;;;;;;;;;5081923;28;20044;-58
2021/09/08 11:40:11;;;;;;;13.55;5.68;;;;;;;;;;5099885;27;20043;-59
2021/09/08 11:42:41;;;;;;;13.25;5.70;;;;;;;;;;5099890;27;20044;-58
2021/09/08 11:45:08;;;;;;;13.93;6.18;;;;;;;;;;5103062;28;20124;-57
2021/09/08 11:47:35;;;;;;;19.08;5.78;;;;;;;;;;5098188;27;20164;-58
2021/09/08 11:50:01;;;;;;;12.90;5.95;;;;;;;;;;5101825;27;20118;-58
2021/09/08 11:52:28;;;;;;;13.00;6.30;;;;;;;;;;5100913;27;20055;-58
2021/09/08 11:54:58;;;;;;;16.85;5.97;;;;;;;;;;5107917;27;20035;-58
2021/09/08 11:57:25;;;;;;;15.15;6.07;;;;;;;;;;5122744;27;20047;-57
2021/09/08 11:59:52;;;;;;;13.82;6.75;;;;;;;;;;5101915;27;20051;-58
2021/09/08 12:02:18;;;;;;;15.50;5.95;;;;;;;;;;5103439;27;20047;-59
2021/09/08 12:04:47;;;;;;;15.20;6.35;;;;;;;;;;5103184;27;20066;-57
2021/09/08 12:07:14;;;;;;;15.18;6.43;;;;;;;;;;5124132;27;20035;-58
2021/09/08 12:09:43;;;;;;;15.25;5.63;;;;;;;;;;5106412;27;20116;-58
2021/09/08 12:12:12;;;;;;;15.30;5.93;;;;;;;;;;5121407;27;20127;-58
2021/09/08 12:14:40;;;;;;;11.52;5.85;;;;;;;;;;5106714;27;20059;-58
2021/09/08 12:17:22;;;;;;;13.13;5.60;;;;;;;;;;5104558;27;20059;-58
2021/09/08 12:19:55;;;;;;;12.48;5.28;;;;;;;;;;5095085;28;20048;-58
2021/09/08 12:22:23;;;;;;;14.05;6.20;;;;;;;;;;5104322;27;20036;-58
2021/09/08 12:24:50;;;;;;;11.70;5.53;;;;;;;;;;5092079;27;20036;-57
2021/09/08 12:27:32;;;;;;;13.85;5.43;;;;;;;;;;5103552;28;20032;-58
2021/09/08 12:29:59;;;;;;;14.48;6.32;;;;;;;;;;5098992;28;20055;-58
2021/09/08 12:32:40;;;;;;;16.63;6.43;;;;;;;;;;5103908;28;20065;-58
2021/09/08 12:35:07;;;;;;;12.77;6.00;;;;;;;;;;5100455;27;20380;-58
2021/09/08 12:37:37;;;;;;;10.73;5.55;;;;;;;;;;5105118;28;20040;-59
2021/09/08 12:40:13;;;;;;;17.23;6.25;;;;;;;;;;5102686;27;20052;-59
2021/09/08 12:42:43;;;;;;;20.08;6.15;;;;;;;;;;5105003;27;20040;-57
2021/09/08 12:45:09;;;;;;;11.10;5.63;;;;;;;;;;5099311;27;20278;-58
2021/09/08 12:47:39;;;;;;;10.48;5.60;;;;;;;;;;5104236;27;20040;-58
2021/09/08 12:50:05;;;;;;;13.13;5.75;;;;;;;;;;5100129;28;20024;-59
2021/09/08 12:52:32;;;;;;;14.55;6.22;;;;;;;;;;5091207;28;20036;-59
2021/09/08 12:54:58;;;;;;;14.18;6.88;;;;;;;;;;5097127;27;20160;-58
2021/09/08 12:57:32;;;;;;;12.95;6.63;;;;;;;;;;5102416;28;20039;-59
2021/09/08 13:00:00;;;;;;;12.05;6.15;;;;;;;;;;5098971;27;20043;-59
2021/09/08 13:02:27;;;;;;;13.05;5.72;;;;;;;;;;5100029;27;20034;-58
2021/09/08 13:04:53;;;;;;;13.10;6.30;;;;;;;;;;5101419;27;20048;-58
2021/09/08 13:07:19;;;;;;;12.30;5.88;;;;;;;;;;5098705;27;20044;-58
2021/09/08 13:09:46;;;;;;;10.18;5.53;;;;;;;;;;5100683;27;20048;-59
2021/09/08 13:12:13;;;;;;;11.68;6.35;;;;;;;;;;5102709;27;20055;-58
2021/09/08 13:14:39;;;;;;;13.05;6.53;;;;;;;;;;5102406;27;20028;-58
2021/09/08 13:17:07;;;;;;;13.50;5.90;;;;;;;;;;5109886;27;20042;-59
2021/09/08 13:19:34;;;;;;;;;;;;;;;;;;5124137;27;20035;-58
2021/09/08 13:22:03;;;;;;;11.65;5.70;;;;;;;;;;5107717;27;19939;-58
2021/09/08 13:24:35;;;;;;;16.23;5.70;;;;;;;;;;5102308;28;20038;-58
2021/09/08 13:27:02;;;;;;;11.57;5.88;;;;;;;;;;5099560;28;20089;-59
2021/09/08 13:29:28;;;;;;;12.98;6.15;;;;;;;;;;5100791;28;20036;-58
2021/09/08 13:31:55;;;;;;;14.38;6.15;;;;;;;;;;5095103;27;20047;-58
2021/09/08 13:34:24;;;;;;;10.48;5.65;;;;;;;;;;5114902;27;20032;-57
2021/09/08 13:36:51;;;;;;;17.15;6.28;;;;;;;;;;5102297;28;20091;-59
2021/09/08 13:39:17;;;;;;;15.57;6.07;;;;;;;;;;5125235;27;20039;-60
2021/09/08 13:41:44;;;;;;;17.98;6.57;;;;;;;;;;5119577;27;20057;-57
2021/09/08 13:44:12;;;;;;;13.55;5.80;;;;;;;;;;5123326;27;20031;-59
2021/09/08 13:46:38;;;;;;;17.13;7.03;;;;;;;;;;5122698;27;20055;-59
2021/09/08 13:49:05;;;;;;;11.15;6.32;;;;;;;;;;5100909;27;20054;-59
2021/09/08 13:51:35;;;;;;;13.52;6.22;;;;;;;;;;5101259;28;20040;-58
2021/09/08 13:54:02;;;;;;;12.50;5.63;;;;;;;;;;5097340;28;20059;-58
2021/09/08 13:56:29;;;;;;;13.10;6.00;;;;;;;;;;5120996;27;20035;-58
2021/09/08 13:58:55;;;;;;;14.65;6.85;;;;;;;;;;5103479;27;20036;-58
2021/09/08 14:01:21;;;;;;;12.05;6.05;;;;;;;;;;5101952;28;20044;-59
2021/09/08 14:03:48;;;;;;;15.10;6.38;;;;;;;;;;5110185;28;20031;-58
2021/09/08 14:06:15;;;;;;;16.95;6.32;;;;;;;;;;5121564;27;20039;-59
2021/09/08 14:08:42;;;;;;;16.77;6.78;;;;;;;;;;5109676;27;20090;-59
2021/09/08 14:11:09;;;;;;;11.43;6.03;;;;;;;;;;5111245;28;20373;-58
2021/09/08 14:13:35;;;;;;;12.23;5.93;;;;;;;;;;5117459;28;20036;-57
2021/09/08 14:16:02;;;;;;;10.15;5.68;;;;;;;;;;5121103;27;20150;-59
2021/09/08 14:18:28;;;;;;;13.25;5.70;;;;;;;;;;5120070;27;20051;-59
2021/09/08 14:20:55;;;;;;;12.85;5.72;;;;;;;;;;5125454;28;20032;-60
2021/09/08 14:23:22;;;;;;;10.65;6.00;;;;;;;;;;5119227;27;20046;-58
2021/09/08 14:25:54;;;;;;;13.00;5.70;;;;;;;;;;5100198;28;20043;-58
2021/09/08 14:28:21;;;;;;;16.70;5.82;;;;;;;;;;5101730;28;20084;-59
2021/09/08 14:30:48;;;;;;;13.98;5.07;;;;;;;;;;5096848;28;20036;-59
2021/09/08 14:33:14;;;;;;;13.18;6.00;;;;;;;;;;5101775;28;20035;-59